Time;durP1;ratioP1;P1;durP2;ratioP2;P2;SDS_P1;SDS_P2;PMS_P1;PMS_P2;Temp;Humidity;BMP_temperature;BMP_pressure;BME280_temperature;BME280_humidity;BME280_pressure;Samples;Min_cycle;Max_cycle;Signal;HPM_P1;HPM_P2
2022/12/13 00:01:15;;;;;;;;;0.00;0.00;;;;;13.31;71.63;98669.34;5061177;28;45554;-75
2022/12/13 00:03:41;;;;;;;;;1.00;1.00;;;;;13.29;71.91;98681.59;5055704;28;45446;-75
2022/12/13 00:06:09;;;;;;;;;0.00;0.00;;;;;13.25;71.87;98674.63;5057074;28;45527;-73
2022/12/13 00:08:35;;;;;;;;;0.00;0.00;;;;;13.25;72.38;98679.88;5054289;28;45457;-75
2022/12/13 00:11:03;;;;;;;;;1.00;1.00;;;;;13.24;72.58;98685.97;5057113;28;45511;-71
2022/12/13 00:13:28;;;;;;;;;1.00;0.00;;;;;13.22;72.83;98690.38;5056769;28;46093;-72
2022/12/13 00:15:59;;;;;;;;;0.00;0.00;;;;;13.24;72.57;98687.75;5056978;28;45333;-75
2022/12/13 00:18:25;;;;;;;;;1.00;1.00;;;;;13.23;72.08;98696.47;5056481;28;45635;-73
2022/12/13 00:20:51;;;;;;;;;0.00;0.00;;;;;13.28;71.93;98685.06;5057475;28;45560;-74
2022/12/13 00:23:16;;;;;;;;;0.67;0.00;;;;;13.27;72.22;98687.69;5054016;28;45694;-75
2022/12/13 00:25:42;;;;;;;;;0.00;0.00;;;;;13.12;72.64;98673.88;5056932;28;45468;-75
2022/12/13 00:28:07;;;;;;;;;0.00;0.00;;;;;13.28;73.62;98708.66;5056676;28;46358;-72
2022/12/13 00:30:34;;;;;;;;;1.00;0.00;;;;;13.30;73.26;98709.53;5056923;28;45563;-75
2022/12/13 00:32:59;;;;;;;;;1.33;1.33;;;;;13.27;73.45;98709.56;5056251;28;45444;-74
2022/12/13 00:35:25;;;;;;;;;0.00;0.00;;;;;13.27;73.97;98700.78;5056604;28;45477;-74
2022/12/13 00:37:51;;;;;;;;;0.00;0.00;;;;;13.07;74.33;98680.03;5055910;28;45354;-75
2022/12/13 00:40:17;;;;;;;;;0.00;0.00;;;;;13.19;74.51;98702.63;5057322;28;46232;-74
2022/12/13 00:42:43;;;;;;;;;0.00;0.00;;;;;13.12;74.36;98699.22;5055062;28;46286;-75
2022/12/13 00:45:09;;;;;;;;;0.00;0.00;;;;;13.11;74.21;98697.47;5055479;28;45586;-73
2022/12/13 00:47:35;;;;;;;;;0.00;0.00;;;;;13.10;74.21;98693.97;5056854;27;45493;-73
2022/12/13 00:50:02;;;;;;;;;0.00;0.00;;;;;13.11;74.55;98706.22;5056589;28;46966;-74
2022/12/13 00:52:28;;;;;;;;;2.00;1.00;;;;;13.13;74.19;98707.06;5054441;28;45508;-72
2022/12/13 00:54:54;;;;;;;;;1.00;1.00;;;;;13.17;73.88;98709.66;5056194;28;45484;-72
2022/12/13 00:57:20;;;;;;;;;1.00;1.00;;;;;13.12;74.03;98710.56;5054207;28;45446;-74
2022/12/13 00:59:45;;;;;;;;;1.00;0.00;;;;;13.17;74.03;98731.50;5069408;28;45520;-74
2022/12/13 01:02:11;;;;;;;;;0.67;0.67;;;;;13.15;74.00;98733.28;5055445;28;45973;-74
2022/12/13 01:04:37;;;;;;;;;0.00;0.00;;;;;13.19;73.90;98724.50;5056228;28;45465;-70
2022/12/13 01:07:03;;;;;;;;;1.00;1.00;;;;;13.21;74.22;98727.97;5054859;28;45583;-75
2022/12/13 01:09:31;;;;;;;;;0.00;0.00;;;;;13.21;73.90;98741.09;5056307;28;45510;-74
2022/12/13 01:12:02;;;;;;;;;0.67;0.67;;;;;13.00;73.91;98709.81;5052783;28;45535;-75
2022/12/13 01:14:28;;;;;;;;;0.00;0.00;;;;;13.19;74.20;98762.94;5056305;28;45397;-73
2022/12/13 01:16:56;;;;;;;;;0.00;0.00;;;;;13.18;74.25;98756.84;5054779;28;45424;-74
2022/12/13 01:19:23;;;;;;;;;1.00;0.67;;;;;13.20;73.99;98773.41;5054589;28;45418;-75
2022/12/13 01:21:53;;;;;;;;;2.00;0.00;;;;;13.21;74.21;98790.91;5055483;28;45329;-75
2022/12/13 01:24:20;;;;;;;;;0.00;0.00;;;;;13.13;73.96;98761.28;5053521;28;45408;-73
2022/12/13 01:26:46;;;;;;;;;1.00;1.00;;;;;13.26;74.44;98793.47;5056000;28;45496;-74
2022/12/13 01:29:12;;;;;;;;;1.00;1.00;;;;;13.26;74.19;98796.97;5056123;28;45438;-74
2022/12/13 01:31:40;;;;;;;;;1.00;1.00;;;;;13.26;74.64;98788.22;5054936;28;45386;-68
2022/12/13 01:34:11;;;;;;;;;0.00;0.00;;;;;13.29;74.77;98775.06;5055896;28;45536;-75
2022/12/13 01:36:41;;;;;;;;;1.00;1.00;;;;;13.30;74.69;98771.63;5055969;28;45387;-71
2022/12/13 01:39:09;;;;;;;;;1.00;1.00;;;;;13.30;74.36;98780.34;5055865;28;45399;-68
2022/12/13 01:41:34;;;;;;;;;0.33;0.00;;;;;13.30;74.77;98795.22;5054726;28;46623;-74
2022/12/13 01:44:21;;;;;;;;;0.67;0.00;;;;;13.28;75.16;98815.31;5054309;28;45433;-74
2022/12/13 01:46:46;;;;;;;;;1.00;1.00;;;;;13.30;74.78;98816.19;5056220;28;45517;-74
2022/12/13 01:49:16;;;;;;;;;0.00;0.00;;;;;13.32;74.43;98825.78;5053425;28;45752;-74
2022/12/13 01:51:47;;;;;;;;;2.00;1.00;;;;;13.32;74.90;98823.16;5053385;28;45541;-75
2022/12/13 01:54:18;;;;;;;;;0.33;0.33;;;;;13.33;74.79;98837.16;5054861;28;45544;-75
2022/12/13 01:56:48;;;;;;;;;0.33;0.33;;;;;13.35;74.56;98840.66;5055221;28;45431;-75
2022/12/13 01:59:17;;;;;;;;;0.00;0.00;;;;;13.22;74.85;98816.22;5055928;28;45540;-75
2022/12/13 02:01:44;;;;;;;;;1.00;1.00;;;;;13.34;74.66;98831.03;5055383;28;45869;-75
2022/12/13 02:04:10;;;;;;;;;1.00;1.00;;;;;13.14;75.04;98812.81;5053984;28;45448;-72
2022/12/13 02:06:40;;;;;;;;;0.00;0.00;;;;;13.34;75.18;98831.03;5055767;28;45525;-75
2022/12/13 02:09:07;;;;;;;;;1.00;1.00;;;;;13.33;74.95;98832.78;5054757;28;45608;-75
2022/12/13 02:11:39;;;;;;;;;1.00;0.67;;;;;13.31;75.11;98837.16;5055081;28;46669;-75
2022/12/13 02:14:05;;;;;;;;;1.00;0.00;;;;;13.31;75.06;98844.19;5055180;28;45407;-74
2022/12/13 02:16:58;;;;;;;;;0.33;0.33;;;;;13.31;75.14;98841.56;5055070;28;45374;-74
2022/12/13 02:19:30;;;;;;;;;0.00;0.00;;;;;13.29;75.62;98833.69;5053134;28;46065;-75
2022/12/13 02:22:37;;;;;;;;;0.00;0.00;;;;;13.26;75.62;98848.53;5052436;28;45503;-74
2022/12/13 02:25:18;;;;;;;;;0.00;0.00;;;;;13.26;75.41;98845.91;5047423;28;45780;-74
2022/12/13 02:28:05;;;;;;;;;1.00;1.00;;;;;13.27;75.29;98843.28;5052779;28;45534;-75
2022/12/13 02:30:47;;;;;;;;;0.00;0.00;;;;;13.27;75.31;98832.81;5051834;28;45549;-75
2022/12/13 02:33:39;;;;;;;;;2.00;1.00;;;;;13.28;75.03;98839.78;5054834;28;45535;-75
2022/12/13 02:36:19;;;;;;;;;0.00;0.00;;;;;13.29;74.74;98857.28;5041094;28;46059;-75
2022/12/13 02:39:22;;;;;;;;;0.67;0.00;;;;;13.31;74.99;98863.41;5055931;28;45667;-75
2022/12/13 02:41:49;;;;;;;;;0.67;0.67;;;;;13.35;74.57;98863.34;5014004;28;47721;-74
2022/12/13 02:44:33;;;;;;;;;0.33;0.33;;;;;13.19;74.74;98826.75;5048241;28;46150;-75
2022/12/13 02:47:08;;;;;;;;;1.00;1.00;;;;;13.35;74.95;98852.88;5055648;28;45895;-75
2022/12/13 02:49:38;;;;;;;;;1.00;0.33;;;;;13.25;75.19;98844.16;5056377;28;45491;-75
2022/12/13 02:52:07;;;;;;;;;0.00;0.00;;;;;13.35;74.77;98860.72;5055908;28;45404;-75
2022/12/13 02:54:33;;;;;;;;;1.00;1.00;;;;;13.39;74.84;98860.72;5058226;28;46379;-74
2022/12/13 02:56:59;;;;;;;;;0.00;0.00;;;;;13.41;74.88;98863.28;5059288;28;45860;-74
2022/12/13 02:59:38;;;;;;;;;1.00;0.33;;;;;13.40;74.60;98856.34;5059751;28;46022;-74
2022/12/13 03:02:40;;;;;;;;;0.00;0.00;;;;;13.43;74.59;98843.16;5059085;28;45485;-74
2022/12/13 03:08:40;;;;;;;;;0.00;0.00;;;;;13.41;74.63;98832.72;5031322;28;46283;-75
2022/12/13 03:11:14;;;;;;;;;0.00;0.00;;;;;13.29;74.95;98824.91;5058737;28;45267;-73
2022/12/13 03:13:55;;;;;;;;;0.00;0.00;;;;;13.42;74.71;98849.31;5071831;28;45612;-75
2022/12/13 03:16:27;;;;;;;;;0.00;0.00;;;;;13.43;74.97;98858.91;5053973;28;45525;-75
2022/12/13 03:18:58;;;;;;;;;0.00;0.00;;;;;13.44;75.29;98863.28;5055615;28;45337;-75
2022/12/13 03:21:24;;;;;;;;;0.33;0.00;;;;;13.36;75.05;98838.88;5047235;28;46358;-74
2022/12/13 03:23:50;;;;;;;;;1.00;0.67;;;;;13.45;74.90;98860.66;5059509;28;45728;-75
2022/12/13 03:26:20;;;;;;;;;1.00;1.00;;;;;13.47;74.89;98868.53;5058599;28;45870;-74
2022/12/13 03:28:46;;;;;;;;;1.00;1.00;;;;;13.50;74.78;98865.84;5043510;28;45457;-74
2022/12/13 03:31:12;;;;;;;;;1.00;1.00;;;;;13.47;74.80;98855.41;5058429;28;45357;-68
2022/12/13 03:33:37;;;;;;;;;1.00;0.00;;;;;13.53;74.70;98863.22;5059691;28;45321;-75
2022/12/13 03:36:04;;;;;;;;;0.00;0.00;;;;;13.56;74.72;98857.06;5058432;28;45978;-74
2022/12/13 03:38:31;;;;;;;;;1.00;0.00;;;;;13.56;74.66;98863.16;5043481;28;45521;-75
2022/12/13 03:41:01;;;;;;;;;0.00;0.00;;;;;13.57;74.39;98864.94;5058981;28;45347;-74
2022/12/13 03:43:27;;;;;;;;;0.00;0.00;;;;;13.57;74.66;98867.56;5059350;28;45313;-73
2022/12/13 03:45:53;;;;;;;;;1.00;0.00;;;;;13.57;74.77;98874.53;5058363;28;47694;-74
2022/12/13 03:48:20;;;;;;;;;0.33;0.33;;;;;13.55;74.56;98871.94;5058419;28;45441;-75
2022/12/13 03:50:46;;;;;;;;;0.00;0.00;;;;;13.56;74.97;98871.03;5058812;28;45310;-74
2022/12/13 03:53:12;;;;;;;;;1.00;0.00;;;;;13.57;75.04;98875.44;5059260;28;45453;-75
2022/12/13 03:55:37;;;;;;;;;1.00;1.00;;;;;13.55;75.09;98873.69;5056936;28;46148;-75
2022/12/13 03:58:03;;;;;;;;;0.67;0.00;;;;;13.56;75.17;98892.03;5044328;28;45770;-75
2022/12/13 04:00:29;;;;;;;;;1.00;0.67;;;;;13.56;75.55;98888.53;5058114;28;45610;-73
2022/12/13 04:02:54;;;;;;;;;0.00;0.00;;;;;13.55;75.47;98878.91;5057704;28;46463;-75
2022/12/13 04:05:20;;;;;;;;;0.33;0.00;;;;;13.54;75.59;98864.94;5056088;28;45882;-72
2022/12/13 04:07:47;;;;;;;;;0.00;0.00;;;;;13.31;76.22;98821.44;5057152;28;45543;-73
2022/12/13 04:10:13;;;;;;;;;1.00;1.00;;;;;13.46;76.48;98857.13;5057736;28;45538;-74
2022/12/13 04:15:23;;;;;;;;;15.00;9.00;;;;;13.37;77.07;98859.84;5055614;28;45807;-74
2022/12/13 04:17:48;;;;;;;;;8.00;7.00;;;;;13.34;76.97;98867.75;5057117;28;45471;-75
2022/12/13 04:20:14;;;;;;;;;9.67;8.67;;;;;13.36;77.19;98875.59;5058474;28;45465;-73
2022/12/13 04:22:39;;;;;;;;;4.00;4.00;;;;;13.38;77.56;98873.84;5058866;28;45413;-75
2022/12/13 04:25:05;;;;;;;;;3.00;3.00;;;;;13.18;77.24;98834.63;5058516;28;45328;-75
2022/12/13 04:27:31;;;;;;;;;1.33;1.33;;;;;13.37;77.35;98880.84;5057151;28;45417;-75
2022/12/13 04:29:56;;;;;;;;;1.00;0.33;;;;;13.35;77.58;98872.13;5058027;28;45435;-74
2022/12/13 04:32:22;;;;;;;;;1.00;0.67;;;;;13.36;77.65;98873.84;5056943;28;45508;-74
2022/12/13 04:34:48;;;;;;;;;1.00;1.00;;;;;13.36;77.58;98879.09;5057083;28;45555;-74
2022/12/13 04:37:13;;;;;;;;;1.33;1.33;;;;;13.34;77.29;98880.84;5056652;28;45215;-75
2022/12/13 04:39:39;;;;;;;;;1.00;1.00;;;;;13.32;76.95;98888.72;5056029;28;45307;-74
2022/12/13 04:42:04;;;;;;;;;1.00;1.00;;;;;13.32;77.08;98895.72;5058047;28;45410;-75
2022/12/13 04:44:30;;;;;;;;;1.67;1.00;;;;;13.19;77.34;98873.06;5056964;28;45441;-74
2022/12/13 04:46:56;;;;;;;;;0.33;0.33;;;;;13.31;77.55;98889.63;5056306;28;45384;-74
2022/12/13 04:49:22;;;;;;;;;2.67;2.67;;;;;13.29;77.66;98880.91;5056108;28;45552;-75
2022/12/13 04:51:47;;;;;;;;;3.00;3.00;;;;;13.27;77.65;98880.00;5050167;28;45413;-75
2022/12/13 04:54:13;;;;;;;;;3.00;3.00;;;;;13.25;77.61;98875.63;5058100;28;45402;-78
2022/12/13 04:56:38;;;;;;;;;0.67;0.67;;;;;13.22;78.17;98881.78;5053795;28;45522;-75
2022/12/13 04:59:04;;;;;;;;;2.00;2.00;;;;;13.17;77.96;98880.06;5057415;28;45355;-75
2022/12/13 05:01:29;;;;;;;;;2.00;2.00;;;;;13.20;77.47;98894.03;5058291;28;45411;-75
2022/12/13 05:03:55;;;;;;;;;1.33;1.00;;;;;13.21;77.73;98884.41;5057717;28;46151;-75
2022/12/13 05:06:20;;;;;;;;;1.00;1.00;;;;;13.23;78.28;98882.63;5057132;28;45617;-75
2022/12/13 05:08:46;;;;;;;;;1.33;1.00;;;;;13.11;78.09;98852.13;5057910;28;45448;-74
2022/12/13 05:11:11;;;;;;;;;1.00;1.00;;;;;13.24;78.26;98876.53;5058192;28;45710;-75
2022/12/13 05:13:37;;;;;;;;;2.00;2.00;;;;;12.99;77.87;98839.13;5051695;28;45276;-75
2022/12/13 05:16:05;;;;;;;;;4.00;4.00;;;;;13.24;78.27;98882.63;5053868;28;45534;-75
2022/12/13 05:18:32;;;;;;;;;16.25;15.25;;;;;13.25;78.25;98880.88;5057556;28;45293;-75
2022/12/13 05:21:06;;;;;;;;;32.75;32.00;;;;;13.26;78.10;98878.25;5056825;28;45610;-74
2022/12/13 05:23:32;;;;;;;;;7.00;7.00;;;;;13.26;78.04;98870.38;5057098;28;45490;-75
2022/12/13 05:25:58;;;;;;;;;7.00;5.00;;;;;13.28;78.21;98875.63;5040938;28;45602;-75
2022/12/13 05:28:27;;;;;;;;;5.33;5.00;;;;;13.26;78.42;98867.75;5056909;28;45400;-74
2022/12/13 05:30:53;;;;;;;;;4.00;4.00;;;;;13.26;78.17;98874.78;5056510;28;45458;-75
2022/12/13 05:33:19;;;;;;;;;4.67;4.00;;;;;13.25;78.41;98878.25;5051990;28;46198;-73
2022/12/13 05:35:45;;;;;;;;;2.00;2.00;;;;;13.26;78.08;98880.00;5047043;28;45260;-75
2022/12/13 05:38:10;;;;;;;;;2.00;0.00;;;;;13.24;78.12;98877.38;5055340;28;45480;-75
2022/12/13 05:40:36;;;;;;;;;3.33;3.33;;;;;13.23;78.30;98883.53;5041003;28;45344;-74
2022/12/13 05:43:02;;;;;;;;;57.75;46.75;;;;;12.99;78.61;98860.09;5051995;28;45554;-75
2022/12/13 05:45:29;;;;;;;;;6.33;5.00;;;;;13.17;78.41;98880.97;5052026;28;45482;-74
2022/12/13 05:47:55;;;;;;;;;65.50;52.75;;;;;13.17;78.39;98883.59;5056949;28;45310;-74
2022/12/13 05:50:20;;;;;;;;;29.00;29.00;;;;;13.18;78.29;98877.44;5041999;28;45250;-75
2022/12/13 05:52:46;;;;;;;;;5.67;5.67;;;;;13.18;78.55;98872.19;5057235;28;46213;-75
2022/12/13 05:55:12;;;;;;;;;6.67;5.00;;;;;13.18;78.46;98871.34;5057014;28;45576;-75
2022/12/13 05:57:37;;;;;;;;;3.67;3.67;;;;;12.98;78.50;98843.50;5057273;28;45379;-75
2022/12/13 06:00:06;;;;;;;;;63.00;49.75;;;;;13.20;78.48;98877.44;5056475;28;45446;-72
2022/12/13 06:02:36;;;;;;;;;7.00;7.00;;;;;13.07;78.65;98845.19;5043075;28;46551;-75
2022/12/13 06:05:02;;;;;;;;;9.00;8.00;;;;;13.21;78.62;98864.31;5056855;28;45417;-75
2022/12/13 06:07:28;;;;;;;;;5.00;5.00;;;;;13.20;78.80;98861.72;5056246;28;45421;-74
2022/12/13 06:09:53;;;;;;;;;5.00;4.00;;;;;13.17;78.91;98866.97;5056704;28;45407;-75
2022/12/13 06:12:19;;;;;;;;;12.00;9.00;;;;;13.20;78.78;98869.56;5057037;28;45540;-74
2022/12/13 06:14:44;;;;;;;;;10.00;9.33;;;;;13.20;78.78;98867.81;5056952;28;45465;-75
2022/12/13 06:17:10;;;;;;;;;35.75;30.50;;;;;13.22;78.51;98870.44;5056767;28;45161;-75
2022/12/13 06:19:36;;;;;;;;;9.00;7.67;;;;;13.21;78.81;98869.56;5056101;28;45302;-75
2022/12/13 06:22:01;;;;;;;;;5.67;5.67;;;;;13.18;79.14;98871.34;5055961;28;46117;-74
2022/12/13 06:24:27;;;;;;;;;19.75;18.50;;;;;13.13;79.15;98864.38;5055495;28;45460;-75
2022/12/13 06:26:52;;;;;;;;;15.25;11.50;;;;;13.13;79.27;98848.66;5056536;28;45294;-72
2022/12/13 06:29:20;;;;;;;;;11.33;10.00;;;;;13.14;79.25;98870.47;5055712;28;45279;-75
2022/12/13 06:31:46;;;;;;;;;13.67;12.67;;;;;13.13;78.68;98895.84;5041298;28;45350;-73
2022/12/13 06:34:12;;;;;;;;;16.25;14.00;;;;;13.13;78.69;98881.88;5049992;28;45840;-74
2022/12/13 06:36:37;;;;;;;;;10.00;9.00;;;;;13.12;78.58;98898.47;5055627;28;45836;-75
2022/12/13 06:39:05;;;;;;;;;8.00;7.00;;;;;13.12;78.72;98888.84;5055999;28;45437;-75
2022/12/13 06:41:30;;;;;;;;;20.25;17.00;;;;;13.13;79.05;98884.50;5055829;28;45668;-75
2022/12/13 06:43:57;;;;;;;;;18.00;17.50;;;;;13.12;78.97;98877.50;5055294;28;45473;-74
2022/12/13 06:46:22;;;;;;;;;17.00;15.75;;;;;12.89;78.92;98840.94;5056215;28;45470;-73
2022/12/13 06:48:48;;;;;;;;;14.67;13.33;;;;;13.06;79.28;98886.25;5056099;28;45543;-71
2022/12/13 06:51:14;;;;;;;;;20.75;19.00;;;;;12.73;79.44;98834.94;5056092;28;46311;-75
2022/12/13 06:53:40;;;;;;;;;19.00;18.50;;;;;12.89;79.08;98862.78;5054388;28;45440;-75
2022/12/13 06:56:11;;;;;;;;;18.75;17.00;;;;;12.93;79.51;98877.63;5055991;28;45315;-75
2022/12/13 06:58:37;;;;;;;;;6.33;6.33;;;;;12.85;79.87;98884.66;5056000;28;45553;-74
2022/12/13 07:01:14;;;;;;;;;18.75;17.00;;;;;12.76;79.99;98884.72;5041802;28;46534;-75
2022/12/13 07:03:40;;;;;;;;;8.00;7.33;;;;;12.72;80.02;98888.22;5054936;28;45635;-73
2022/12/13 07:06:10;;;;;;;;;13.67;12.33;;;;;12.67;80.73;98884.75;5055658;28;45429;-74
2022/12/13 07:08:36;;;;;;;;;9.67;9.67;;;;;12.62;80.56;98881.28;5053790;28;45533;-74
2022/12/13 07:11:02;;;;;;;;;54.25;44.00;;;;;12.56;80.43;98886.56;5054846;28;46126;-72
2022/12/13 07:13:29;;;;;;;;;39.00;35.25;;;;;11.77;80.51;98763.81;5039622;28;45772;-74
2022/12/13 07:15:55;;;;;;;;;31.25;28.75;;;;;12.43;80.83;98893.59;5047652;28;45393;-73
2022/12/13 07:18:21;;;;;;;;;21.75;20.50;;;;;12.37;80.92;98891.88;5048760;28;45571;-75
2022/12/13 07:20:47;;;;;;;;;21.25;20.50;;;;;12.32;80.84;98894.50;5053674;28;45941;-73
2022/12/13 07:23:12;;;;;;;;;13.25;13.25;;;;;12.27;80.95;98890.16;5055873;28;45494;-74
2022/12/13 07:25:39;;;;;;;;;29.75;27.75;;;;;12.21;81.31;98890.19;5055689;28;45504;-74
2022/12/13 07:28:08;;;;;;;;;44.75;37.25;;;;;12.17;81.36;98877.97;5054616;28;45586;-74
2022/12/13 07:30:37;;;;;;;;;49.50;41.25;;;;;12.07;81.41;98861.44;5041980;28;45477;-73
2022/12/13 07:33:04;;;;;;;;;56.00;44.25;;;;;12.12;81.94;98871.00;5051175;28;45485;-74
2022/12/13 07:35:31;;;;;;;;;42.00;36.50;;;;;12.08;81.70;98871.91;5036939;28;45505;-73
2022/12/13 07:37:57;;;;;;;;;40.75;36.00;;;;;12.06;81.35;98875.41;5036336;28;45455;-73
2022/12/13 07:40:22;;;;;;;;;29.75;29.25;;;;;11.92;81.61;98867.59;5057387;28;45968;-73
2022/12/13 07:42:52;;;;;;;;;15.75;15.25;;;;;11.99;81.67;98881.53;5057664;28;45329;-74
2022/12/13 07:45:18;;;;;;;;;13.75;13.00;;;;;11.77;81.99;98847.53;5058366;28;45569;-72
2022/12/13 07:47:44;;;;;;;;;20.25;16.00;;;;;11.95;81.65;98880.66;5050689;28;45370;-73
2022/12/13 07:50:10;;;;;;;;;31.25;26.75;;;;;11.77;81.92;98857.13;5043090;28;45365;-74
2022/12/13 07:52:35;;;;;;;;;27.75;27.00;;;;;11.97;81.99;98897.22;5050595;28;45172;-74
2022/12/13 07:55:01;;;;;;;;;29.75;29.75;;;;;11.98;81.72;98890.22;5051412;28;45450;-74
2022/12/13 07:57:27;;;;;;;;;19.25;17.75;;;;;12.02;82.05;98910.31;5058556;28;45772;-68
2022/12/13 07:59:52;;;;;;;;;23.00;19.50;;;;;12.05;82.17;98897.22;5042998;28;45478;-73
2022/12/13 08:02:18;;;;;;;;;32.00;30.25;;;;;11.99;82.08;98869.31;5058362;28;45332;-74
2022/12/13 08:04:43;;;;;;;;;4.00;4.00;;;;;12.24;81.84;98900.66;5058579;28;45408;-73
2022/12/13 08:07:09;;;;;;;;;93.50;82.75;;;;;12.32;81.90;98888.41;5058011;28;45319;-70
2022/12/13 08:09:35;;;;;;;;;72.75;54.75;;;;;12.33;81.54;98880.56;5058257;28;46267;-73
2022/12/13 08:12:01;;;;;;;;;81.00;68.75;;;;;12.41;81.12;98885.72;5053491;28;45789;-73
2022/12/13 08:14:27;;;;;;;;;53.00;43.25;;;;;12.49;80.59;98886.59;5050743;28;45476;-73
2022/12/13 08:16:52;;;;;;;;;65.75;50.75;;;;;12.36;80.46;98842.13;5057878;28;45537;-73
2022/12/13 08:19:18;;;;;;;;;59.00;47.75;;;;;12.58;80.54;98874.34;5047697;28;45520;-74
2022/12/13 08:21:44;;;;;;;;;48.00;39.00;;;;;12.58;80.42;98862.09;5057974;28;45509;-73
2022/12/13 08:24:10;;;;;;;;;27.75;22.75;;;;;12.65;80.13;98855.97;5046854;28;45453;-73
2022/12/13 08:26:36;;;;;;;;;30.75;30.25;;;;;12.64;79.91;98854.19;5054183;28;45453;-72
2022/12/13 08:29:02;;;;;;;;;35.50;33.75;;;;;12.64;80.27;98846.34;5057132;28;45567;-73
2022/12/13 08:31:27;;;;;;;;;34.75;32.50;;;;;12.80;79.69;98856.75;5058366;28;45868;-73
2022/12/13 08:33:53;;;;;;;;;38.75;35.00;;;;;12.86;79.49;98860.19;5046862;28;45550;-73
2022/12/13 08:36:21;;;;;;;;;38.50;33.75;;;;;12.97;79.14;98868.00;5053079;28;46069;-73
2022/12/13 08:38:47;;;;;;;;;42.25;35.25;;;;;13.07;79.18;98861.81;5056699;28;45441;-73
2022/12/13 08:41:12;;;;;;;;;39.00;34.75;;;;;13.20;78.34;98853.84;5057941;28;45407;-73
2022/12/13 08:43:38;;;;;;;;;41.50;37.25;;;;;13.31;78.00;98850.28;5057602;28;45327;-73
2022/12/13 08:46:05;;;;;;;;;52.75;42.50;;;;;13.48;77.89;98849.25;5058256;28;45402;-73
2022/12/13 08:48:30;;;;;;;;;57.25;45.75;;;;;13.63;76.98;98827.28;5056389;28;45622;-72
2022/12/13 08:51:06;;;;;;;;;16.25;15.75;;;;;13.85;76.03;98833.16;5057982;28;45299;-73
2022/12/13 08:53:32;;;;;;;;;53.25;43.75;;;;;13.95;75.77;98824.31;5057752;28;45335;-72
2022/12/13 08:56:02;;;;;;;;;45.75;37.00;;;;;14.11;75.34;98836.34;5058291;28;45544;-72
2022/12/13 08:58:28;;;;;;;;;25.75;20.50;;;;;14.22;74.87;98833.59;5057165;28;45423;-73
2022/12/13 09:00:54;;;;;;;;;18.00;17.75;;;;;14.29;74.24;98834.41;5057642;28;45465;-73
2022/12/13 09:03:19;;;;;;;;;19.25;13.75;;;;;14.39;73.42;98830.75;5047675;28;45205;-73
2022/12/13 09:05:45;;;;;;;;;41.25;36.00;;;;;14.45;73.48;98833.31;5052083;28;45518;-73
2022/12/13 09:08:10;;;;;;;;;47.75;40.00;;;;;14.41;73.21;98820.25;5056385;28;45468;-73
2022/12/13 09:10:36;;;;;;;;;47.75;40.00;;;;;14.60;73.37;98841.91;5057831;28;45455;-73
2022/12/13 09:13:02;;;;;;;;;56.00;46.00;;;;;14.61;73.82;98841.88;5056780;28;45579;-70
2022/12/13 09:15:29;;;;;;;;;15.50;13.50;;;;;14.40;74.12;98816.72;5056596;28;45497;-74
2022/12/13 09:17:54;;;;;;;;;23.50;21.50;;;;;14.50;74.02;98842.00;5056487;28;46248;-74
2022/12/13 09:20:20;;;;;;;;;11.00;10.00;;;;;14.53;73.71;98834.06;5056855;28;45559;-74
2022/12/13 09:22:45;;;;;;;;;13.00;13.00;;;;;14.50;73.46;98834.13;5047645;28;45502;-73
2022/12/13 09:25:11;;;;;;;;;21.25;18.25;;;;;14.52;73.38;98821.84;5051240;28;45415;-74
2022/12/13 09:27:37;;;;;;;;;24.75;24.50;;;;;14.56;73.44;98822.66;5040714;28;46110;-73
2022/12/13 09:30:04;;;;;;;;;16.25;15.25;;;;;14.58;73.67;98820.03;5054649;28;45501;-67
2022/12/13 09:32:30;;;;;;;;;23.50;18.25;;;;;14.62;73.14;98830.50;5056384;28;45527;-74
2022/12/13 09:34:56;;;;;;;;;16.50;16.00;;;;;14.72;72.95;98833.84;5056944;28;45519;-73
2022/12/13 09:37:21;;;;;;;;;28.50;26.25;;;;;14.77;73.07;98825.91;5056881;28;46086;-70
2022/12/13 09:39:47;;;;;;;;;24.50;23.00;;;;;14.81;73.07;98823.19;5056641;28;45488;-73
2022/12/13 09:42:27;;;;;;;;;19.00;18.00;;;;;14.90;72.67;98830.97;5049784;28;45373;-74
2022/12/13 09:45:02;;;;;;;;;24.75;23.75;;;;;15.06;72.32;98839.47;5050592;28;45255;-74
2022/12/13 09:47:31;;;;;;;;;19.50;17.75;;;;;15.26;72.12;98831.28;5045875;28;46113;-73
2022/12/13 09:50:00;;;;;;;;;13.00;13.00;;;;;15.50;71.34;98829.97;5051474;28;45476;-74
2022/12/13 09:52:33;;;;;;;;;15.00;12.67;;;;;15.65;70.22;98815.66;5040541;28;45441;-74
2022/12/13 09:54:58;;;;;;;;;14.67;13.00;;;;;15.93;68.70;98832.75;5057292;28;45307;-74
2022/12/13 09:57:28;;;;;;;;;3.67;3.00;;;;;16.13;68.10;98829.72;5056895;28;45330;-73
2022/12/13 09:59:54;;;;;;;;;7.67;6.00;;;;;16.32;67.90;98819.69;5056950;28;45616;-74
2022/12/13 10:02:26;;;;;;;;;7.00;5.33;;;;;16.60;66.34;98827.88;5051859;28;45529;-74
2022/12/13 10:04:52;;;;;;;;;3.00;3.00;;;;;16.93;65.83;98818.34;5045400;28;45449;-74
2022/12/13 10:07:23;;;;;;;;;9.67;9.67;;;;;17.24;65.18;98823.72;5046123;28;46042;-74
2022/12/13 10:09:58;;;;;;;;;9.33;8.67;;;;;17.54;64.23;98826.50;5039994;28;45351;-74
2022/12/13 10:12:24;;;;;;;;;12.67;12.67;;;;;17.78;63.14;98813.56;5056255;28;45307;-74
2022/12/13 10:14:55;;;;;;;;;17.67;16.00;;;;;17.96;63.26;98815.72;5056711;28;45574;-74
2022/12/13 10:17:25;;;;;;;;;11.67;9.67;;;;;18.04;62.04;98804.94;5055755;28;46019;-71
2022/12/13 10:19:51;;;;;;;;;13.00;11.67;;;;;18.08;61.81;98790.75;5055753;28;45524;-74
2022/12/13 10:22:19;;;;;;;;;8.67;7.67;;;;;18.14;62.31;98794.97;5056260;28;45473;-73
2022/12/13 10:25:04;;;;;;;;;7.00;5.67;;;;;18.21;61.50;98796.56;5056458;28;45610;-74
2022/12/13 10:27:40;;;;;;;;;9.00;9.00;;;;;18.29;61.04;98797.19;5055394;28;45481;-74
2022/12/13 10:30:23;;;;;;;;;4.67;3.67;;;;;18.36;60.70;98804.00;5056086;28;45290;-71
2022/12/13 10:32:55;;;;;;;;;4.00;4.00;;;;;18.44;60.64;98804.69;5042769;28;45447;-74
2022/12/13 10:35:31;;;;;;;;;25.50;23.50;;;;;18.47;59.82;98799.28;5054883;28;45204;-74
2022/12/13 10:38:00;;;;;;;;;11.00;11.00;;;;;18.49;60.33;98796.59;5055616;28;46216;-74
2022/12/13 10:40:35;;;;;;;;;5.67;5.67;;;;;18.52;60.46;98801.78;5056191;28;45991;-74
2022/12/13 10:43:11;;;;;;;;;2.00;1.67;;;;;18.57;60.44;98804.28;5054949;28;45524;-74
2022/12/13 10:45:37;;;;;;;;;21.67;20.67;;;;;18.58;60.03;98784.84;5056003;28;45418;-69
2022/12/13 10:48:03;;;;;;;;;49.00;40.75;;;;;18.58;59.62;98779.56;5055874;28;45932;-75
2022/12/13 10:50:30;;;;;;;;;18.33;16.00;;;;;18.59;59.72;98776.88;5055749;28;45446;-75
2022/12/13 10:52:59;;;;;;;;;7.33;7.00;;;;;18.57;59.40;98777.84;5053542;28;45556;-75
2022/12/13 10:55:32;;;;;;;;;9.67;9.67;;;;;18.62;59.72;98781.19;5042571;28;45243;-74
2022/12/13 10:58:06;;;;;;;;;6.67;6.00;;;;;18.59;59.77;98765.44;5055218;28;45490;-74
2022/12/13 11:00:40;;;;;;;;;10.00;9.67;;;;;18.56;59.14;98760.25;5055668;28;45610;-74
2022/12/13 11:03:09;;;;;;;;;18.00;17.00;;;;;18.53;59.84;98768.28;5056389;28;45446;-74
2022/12/13 11:05:36;;;;;;;;;11.00;10.00;;;;;18.51;59.80;98763.03;5056095;28;45321;-74
2022/12/13 11:08:21;;;;;;;;;3.67;3.67;;;;;18.45;59.68;98782.59;5055956;28;46395;-74
2022/12/13 11:11:08;;;;;;;;;8.00;8.00;;;;;18.34;59.10;98781.19;5056089;28;45493;-74
2022/12/13 11:13:55;;;;;;;;;1.67;1.67;;;;;18.22;58.97;98788.59;5056102;28;45368;-74
2022/12/13 11:16:26;;;;;;;;;0.67;0.67;;;;;18.14;59.91;98789.69;5059955;28;45287;-74
2022/12/13 11:18:59;;;;;;;;;3.00;2.00;;;;;18.04;59.54;98779.38;5045360;28;46165;-74
2022/12/13 11:21:28;;;;;;;;;4.67;3.00;;;;;18.04;59.47;98762.66;5055147;28;45330;-74
2022/12/13 11:24:00;;;;;;;;;1.00;1.00;;;;;18.04;60.03;98763.53;5047390;28;45520;-75
2022/12/13 11:26:27;;;;;;;;;1.67;1.00;;;;;17.95;60.11;98742.69;5057880;28;45676;-73
2022/12/13 11:29:10;;;;;;;;;2.00;1.67;;;;;18.17;60.20;98771.13;5042574;28;46079;-74
2022/12/13 11:32:11;;;;;;;;;0.67;0.67;;;;;18.03;59.96;98735.38;5047059;28;45489;-74
2022/12/13 11:34:40;;;;;;;;;6.00;4.67;;;;;18.27;60.04;98756.72;5058911;28;45408;-74
2022/12/13 11:37:27;;;;;;;;;7.00;6.67;;;;;18.25;59.92;98746.19;5055270;28;45535;-74
2022/12/13 11:40:30;;;;;;;;;2.67;2.67;;;;;18.26;59.66;98734.72;5050829;28;45331;-74